createdAt,value
2019-03-26T00:00:40.973Z,3.47
2019-03-26T00:03:13.762Z,3.80
2019-03-26T00:05:46.609Z,3.27
2019-03-26T00:08:19.262Z,3.80
2019-03-26T00:10:51.893Z,3.58
2019-03-26T00:13:24.572Z,3.15
2019-03-26T00:15:58.297Z,3.03
2019-03-26T00:18:30.978Z,3.30
2019-03-26T00:21:03.768Z,3.73
2019-03-26T00:23:36.516Z,3.73
2019-03-26T00:26:09.110Z,3.17
2019-03-26T00:28:41.726Z,3.37
2019-03-26T00:31:14.332Z,3.53
2019-03-26T00:33:46.991Z,3.47
2019-03-26T00:36:19.736Z,3.60
2019-03-26T00:38:52.273Z,3.80
2019-03-26T00:41:24.851Z,3.40
2019-03-26T00:43:57.365Z,3.47
2019-03-26T00:46:29.903Z,3.67
2019-03-26T00:49:02.425Z,3.73
2019-03-26T00:51:34.941Z,3.13
2019-03-26T00:54:07.543Z,3.80
2019-03-26T00:56:40.133Z,2.90
2019-03-26T00:59:12.705Z,3.50
2019-03-26T01:01:45.324Z,3.50
2019-03-26T01:04:17.944Z,3.62
2019-03-26T01:06:50.549Z,3.50
2019-03-26T01:09:23.900Z,4.40
2019-03-26T01:11:56.437Z,3.13
2019-03-26T01:14:29.058Z,3.42
2019-03-26T01:17:01.579Z,4.10
2019-03-26T01:19:34.177Z,4.30
2019-03-26T01:22:07.776Z,3.17
2019-03-26T01:24:40.570Z,4.27
2019-03-26T01:27:13.155Z,4.07
2019-03-26T01:29:45.682Z,4.40
2019-03-26T01:32:18.195Z,3.50
2019-03-26T01:34:50.705Z,3.50
2019-03-26T01:37:23.224Z,4.37
2019-03-26T01:39:55.733Z,4.27
2019-03-26T01:42:28.325Z,4.00
2019-03-26T01:45:00.828Z,4.27
2019-03-26T01:47:33.366Z,4.10
2019-03-26T01:50:06.785Z,5.00
2019-03-26T01:52:39.310Z,4.23
2019-03-26T01:55:12.290Z,4.17
2019-03-26T01:57:45.172Z,4.60
2019-03-26T02:00:17.981Z,4.47
2019-03-26T02:02:51.025Z,4.57
2019-03-26T02:05:23.555Z,3.75
2019-03-26T02:07:56.083Z,4.50
2019-03-26T02:10:28.601Z,3.97
2019-03-26T02:13:01.127Z,4.77
2019-03-26T02:15:34.835Z,4.67
2019-03-26T02:18:08.789Z,4.67
2019-03-26T02:20:41.384Z,4.57
2019-03-26T02:23:14.575Z,4.43
2019-03-26T02:25:47.101Z,4.90
2019-03-26T02:28:19.711Z,4.77
2019-03-26T02:30:52.297Z,4.73
2019-03-26T02:33:24.901Z,5.17
2019-03-26T02:35:57.425Z,5.22
2019-03-26T02:38:30.137Z,5.17
2019-03-26T02:41:02.658Z,4.93
2019-03-26T02:43:35.166Z,5.13
2019-03-26T02:46:07.846Z,4.83
2019-03-26T02:48:40.696Z,5.60
2019-03-26T02:51:13.206Z,5.47
2019-03-26T02:53:45.738Z,5.58
2019-03-26T02:56:18.252Z,4.75
2019-03-26T02:58:50.777Z,5.30
2019-03-26T03:01:23.307Z,4.97
2019-03-26T03:03:55.837Z,5.37
2019-03-26T03:06:28.366Z,5.70
2019-03-26T03:09:00.902Z,5.30
2019-03-26T03:11:33.803Z,5.53
2019-03-26T03:14:06.479Z,5.07
2019-03-26T03:16:39.002Z,5.73
2019-03-26T03:19:15.865Z,5.40
2019-03-26T03:21:46.888Z,5.37
2019-03-26T03:24:19.402Z,5.42
2019-03-26T03:26:52.001Z,5.40
2019-03-26T03:29:24.532Z,5.20
2019-03-26T03:31:57.048Z,5.23
2019-03-26T03:34:29.968Z,5.97
2019-03-26T03:37:02.532Z,4.97
2019-03-26T03:39:35.045Z,5.40
2019-03-26T03:42:08.773Z,5.00
2019-03-26T03:44:41.537Z,5.83
2019-03-26T03:47:16.188Z,5.27
2019-03-26T03:49:49.446Z,5.20
2019-03-26T03:52:23.738Z,5.45
2019-03-26T03:54:56.564Z,6.33
2019-03-26T03:57:32.665Z,5.45
2019-03-26T04:00:06.924Z,6.33
2019-03-26T04:02:39.432Z,5.67
2019-03-26T04:05:12.198Z,4.77
2019-03-26T04:07:44.713Z,5.40
2019-03-26T04:10:17.215Z,5.33
2019-03-26T04:12:49.721Z,5.30
2019-03-26T04:15:22.218Z,4.92
2019-03-26T04:17:54.762Z,5.73
2019-03-26T04:20:27.575Z,5.33
2019-03-26T04:23:00.294Z,5.60
2019-03-26T04:25:33.121Z,6.00
2019-03-26T04:28:05.790Z,5.03
2019-03-26T04:30:38.705Z,5.43
2019-03-26T04:33:12.445Z,6.57
2019-03-26T04:35:44.960Z,4.77
2019-03-26T04:38:17.543Z,5.62
2019-03-26T04:40:50.283Z,5.40
2019-03-26T04:43:22.844Z,5.03
2019-03-26T04:45:55.488Z,7.90
2019-03-26T04:48:28.323Z,7.00
2019-03-26T04:51:00.826Z,5.87
2019-03-26T04:53:34.329Z,6.20
2019-03-26T04:56:07.020Z,5.93
2019-03-26T04:58:39.722Z,6.37
2019-03-26T05:01:12.729Z,6.37
2019-03-26T05:03:45.600Z,6.00
2019-03-26T05:06:18.251Z,6.58
2019-03-26T05:08:50.797Z,6.57
2019-03-26T05:11:23.343Z,6.22
2019-03-26T05:13:55.860Z,6.20
2019-03-26T05:16:28.464Z,6.20
2019-03-26T05:19:00.980Z,5.58
2019-03-26T05:21:33.653Z,6.80
2019-03-26T05:24:06.618Z,6.37
2019-03-26T05:26:39.240Z,6.90
2019-03-26T05:29:12.102Z,6.93
2019-03-26T05:31:44.926Z,7.08
2019-03-26T05:34:17.686Z,6.83
2019-03-26T05:36:51.702Z,6.60
2019-03-26T05:39:24.495Z,6.47
2019-03-26T05:41:56.993Z,6.83
2019-03-26T05:44:29.511Z,6.95
2019-03-26T05:47:02.095Z,6.35
2019-03-26T05:49:34.615Z,7.17
2019-03-26T05:52:07.113Z,7.20
2019-03-26T05:54:39.647Z,6.63
2019-03-26T05:57:12.317Z,7.07
2019-03-26T05:59:44.901Z,7.47
2019-03-26T06:02:18.114Z,7.20
2019-03-26T06:04:50.983Z,7.17
2019-03-26T06:07:23.563Z,7.78
2019-03-26T06:09:57.110Z,7.00
2019-03-26T06:12:30.583Z,7.20
2019-03-26T06:15:11.884Z,6.97
2019-03-26T06:17:42.048Z,6.90
2019-03-26T06:20:14.735Z,6.87
2019-03-26T06:22:47.254Z,7.70
2019-03-26T06:25:19.847Z,7.25
2019-03-26T06:27:52.355Z,6.63
2019-03-26T06:30:24.865Z,7.13
2019-03-26T06:32:57.405Z,6.37
2019-03-26T06:35:29.873Z,6.75
2019-03-26T06:38:02.360Z,6.50
2019-03-26T06:40:35.607Z,6.97
2019-03-26T06:43:08.102Z,7.80
2019-03-26T06:45:40.866Z,7.77
2019-03-26T06:48:13.457Z,7.20
2019-03-26T06:50:47.280Z,7.43
2019-03-26T06:53:19.771Z,7.78
2019-03-26T06:55:52.287Z,7.33
2019-03-26T06:58:24.867Z,7.47
2019-03-26T07:00:57.465Z,8.00
2019-03-26T07:03:30.052Z,6.87
2019-03-26T07:06:02.632Z,8.53
2019-03-26T07:08:35.118Z,7.40
2019-03-26T07:11:07.707Z,8.17
2019-03-26T07:13:40.221Z,8.77
2019-03-26T07:16:12.816Z,7.87
2019-03-26T07:18:45.374Z,9.00
2019-03-26T07:21:17.880Z,8.50
2019-03-26T07:23:50.449Z,8.37
2019-03-26T07:26:23.138Z,7.58
2019-03-26T07:28:56.884Z,8.30
2019-03-26T07:31:29.644Z,9.05
2019-03-26T07:34:02.154Z,7.90
2019-03-26T07:36:34.747Z,8.00
2019-03-26T07:39:09.300Z,9.23
2019-03-26T07:41:41.875Z,7.80
2019-03-26T07:44:14.411Z,8.17
2019-03-26T07:46:46.986Z,6.87
2019-03-26T07:49:19.527Z,8.45
2019-03-26T07:51:52.283Z,8.23
2019-03-26T07:54:24.878Z,9.08
2019-03-26T07:56:58.451Z,8.30
2019-03-26T07:59:30.948Z,8.03
2019-03-26T08:02:03.489Z,9.10
2019-03-26T08:04:38.614Z,9.23
2019-03-26T08:07:11.343Z,9.10
2019-03-26T08:09:43.860Z,8.48
2019-03-26T08:12:16.435Z,7.42
2019-03-26T08:14:49.036Z,8.37
2019-03-26T08:17:21.814Z,8.18
2019-03-26T08:19:54.572Z,8.77
2019-03-26T08:22:27.078Z,7.55
2019-03-26T08:24:59.650Z,8.53
2019-03-26T08:27:32.150Z,8.20
2019-03-26T08:30:05.674Z,8.33
2019-03-26T08:32:38.267Z,6.73
2019-03-26T08:35:11.047Z,8.07
2019-03-26T08:37:43.563Z,7.53
2019-03-26T08:40:16.408Z,8.00
2019-03-26T08:42:49.057Z,7.23
2019-03-26T08:45:21.899Z,5.12
2019-03-26T08:47:54.418Z,8.63
2019-03-26T08:50:26.917Z,6.37
2019-03-26T08:52:59.438Z,8.50
2019-03-26T08:55:31.943Z,12.10
2019-03-26T08:58:04.557Z,6.67
2019-03-26T09:00:37.385Z,5.30
2019-03-26T09:03:10.675Z,6.53
2019-03-26T09:05:43.254Z,7.00
2019-03-26T09:08:25.184Z,6.60
2019-03-26T09:10:52.067Z,7.00
2019-03-26T09:13:24.480Z,6.63
2019-03-26T09:15:56.976Z,6.93
2019-03-26T09:18:29.624Z,2.10
2019-03-26T09:21:02.207Z,5.93
2019-03-26T09:23:34.703Z,5.77
2019-03-26T09:26:07.299Z,4.13
2019-03-26T09:28:39.802Z,5.27
2019-03-26T09:31:12.304Z,6.67
2019-03-26T09:33:44.913Z,6.10
2019-03-26T09:36:17.477Z,5.80
2019-03-26T09:38:50.267Z,4.63
2019-03-26T09:41:22.761Z,5.53
2019-03-26T09:43:55.257Z,5.77
2019-03-26T09:46:27.814Z,5.58
2019-03-26T09:49:00.394Z,4.50
2019-03-26T09:51:32.900Z,4.60
2019-03-26T09:54:05.480Z,4.23
2019-03-26T09:56:37.985Z,4.37
2019-03-26T09:59:10.559Z,4.87
2019-03-26T10:01:43.070Z,4.67
2019-03-26T10:04:15.554Z,6.20
2019-03-26T10:06:48.068Z,5.33
2019-03-26T10:09:20.557Z,4.87
2019-03-26T10:11:53.123Z,3.70
2019-03-26T10:14:25.628Z,5.35
2019-03-26T10:16:58.101Z,5.33
2019-03-26T10:19:30.887Z,4.17
2019-03-26T10:22:03.537Z,5.80
2019-03-26T10:24:36.116Z,5.43
2019-03-26T10:27:10.201Z,5.40
2019-03-26T10:29:42.700Z,4.60
2019-03-26T10:32:15.351Z,4.25
2019-03-26T10:34:47.867Z,3.80
2019-03-26T10:37:20.519Z,4.55
2019-03-26T10:39:53.027Z,3.20
2019-03-26T10:42:25.658Z,1.90
2019-03-26T10:44:58.229Z,2.60
2019-03-26T10:47:30.706Z,4.03
2019-03-26T10:50:03.199Z,2.40
2019-03-26T10:52:35.948Z,3.13
2019-03-26T10:55:08.671Z,1.60
2019-03-26T10:57:41.153Z,2.80
2019-03-26T11:00:14.167Z,3.00
2019-03-26T11:02:46.815Z,3.33
2019-03-26T11:05:19.561Z,2.72
2019-03-26T11:07:52.117Z,3.07
2019-03-26T11:10:24.686Z,2.70
2019-03-26T11:12:57.327Z,2.93
2019-03-26T11:15:29.894Z,3.00
2019-03-26T11:18:02.382Z,3.00
2019-03-26T11:20:35.145Z,2.67
2019-03-26T11:23:08.040Z,2.00
2019-03-26T11:25:40.607Z,3.42
2019-03-26T11:28:13.418Z,2.90
2019-03-26T11:30:45.917Z,2.90
2019-03-26T11:33:18.405Z,2.50
2019-03-26T11:35:50.971Z,2.67
2019-03-26T11:38:23.525Z,2.40
2019-03-26T11:40:56.021Z,2.40
2019-03-26T11:43:28.514Z,2.70
2019-03-26T11:46:01.088Z,2.87
2019-03-26T11:48:33.590Z,2.10
2019-03-26T11:51:06.228Z,2.83
2019-03-26T11:53:38.729Z,2.20
2019-03-26T11:56:11.291Z,3.07
2019-03-26T11:58:43.780Z,1.40
2019-03-26T12:01:16.367Z,1.95
2019-03-26T12:03:48.854Z,2.93
2019-03-26T12:06:21.433Z,1.92
2019-03-26T12:08:54.054Z,1.73
2019-03-26T12:11:26.556Z,1.35
2019-03-26T12:13:59.046Z,2.57
2019-03-26T12:16:31.522Z,2.37
2019-03-26T12:19:04.015Z,2.30
2019-03-26T12:21:36.507Z,1.97
2019-03-26T12:24:09.057Z,2.70
2019-03-26T12:26:41.643Z,2.70
2019-03-26T12:29:14.633Z,2.37
2019-03-26T12:31:47.145Z,2.50
2019-03-26T12:34:19.619Z,2.53
2019-03-26T12:36:52.191Z,2.40
2019-03-26T12:39:25.656Z,2.10
2019-03-26T12:41:58.232Z,2.70
2019-03-26T12:44:30.726Z,2.23
2019-03-26T12:47:03.219Z,1.60
2019-03-26T12:49:36.682Z,2.30
2019-03-26T12:52:10.495Z,2.77
2019-03-26T12:54:43.057Z,2.87
2019-03-26T12:57:15.551Z,2.80
2019-03-26T12:59:48.142Z,2.40
2019-03-26T13:02:20.631Z,3.60
2019-03-26T13:04:53.150Z,2.13
2019-03-26T13:07:25.710Z,2.55
2019-03-26T13:09:58.280Z,2.90
2019-03-26T13:12:30.780Z,3.10
2019-03-26T13:15:03.296Z,2.77
2019-03-26T13:17:36.831Z,3.00
2019-03-26T13:20:10.231Z,2.50
2019-03-26T13:22:42.794Z,2.80
2019-03-26T13:25:15.363Z,2.27
2019-03-26T13:27:47.841Z,2.23
2019-03-26T13:30:21.770Z,3.20
2019-03-26T13:32:54.263Z,2.50
2019-03-26T13:35:26.752Z,2.33
2019-03-26T13:37:59.478Z,1.80
2019-03-26T13:40:31.970Z,1.67
2019-03-26T13:43:04.459Z,2.30
2019-03-26T13:45:37.026Z,1.17
2019-03-26T13:48:10.532Z,2.50
2019-03-26T13:50:43.163Z,2.27
2019-03-26T13:53:15.728Z,2.03
2019-03-26T13:55:48.565Z,1.83
2019-03-26T13:58:21.122Z,2.15
2019-03-26T14:00:53.714Z,2.00
2019-03-26T14:03:26.207Z,2.20
2019-03-26T14:05:58.708Z,2.37
2019-03-26T14:08:31.805Z,2.80
2019-03-26T14:11:04.795Z,1.90
2019-03-26T14:13:37.280Z,1.80
2019-03-26T14:16:10.469Z,2.03
2019-03-26T14:18:42.953Z,2.80
2019-03-26T14:21:15.468Z,1.77
2019-03-26T14:23:48.049Z,2.00
2019-03-26T14:26:20.562Z,2.35
2019-03-26T14:28:53.618Z,2.30
2019-03-26T14:31:26.111Z,2.62
2019-03-26T14:33:58.590Z,1.80
2019-03-26T14:36:31.253Z,2.50
2019-03-26T14:39:04.754Z,1.97
2019-03-26T14:41:38.214Z,2.33
2019-03-26T14:44:11.841Z,1.97
2019-03-26T14:46:44.363Z,2.58
2019-03-26T14:49:16.850Z,1.70
2019-03-26T14:51:49.339Z,1.77
2019-03-26T14:54:21.924Z,2.65
2019-03-26T14:56:54.415Z,2.23
2019-03-26T14:59:26.899Z,2.40
2019-03-26T15:01:59.468Z,1.83
2019-03-26T15:04:32.023Z,2.27
2019-03-26T15:07:04.602Z,2.27
2019-03-26T15:09:37.079Z,2.13
2019-03-26T15:12:10.326Z,2.40
2019-03-26T15:14:43.065Z,1.97
2019-03-26T15:17:15.578Z,1.90
2019-03-26T15:19:48.130Z,2.40
2019-03-26T15:22:20.863Z,2.80
2019-03-26T15:24:53.351Z,2.67
2019-03-26T15:27:25.854Z,2.65
2019-03-26T15:29:58.348Z,2.97
2019-03-26T15:32:31.107Z,2.87
2019-03-26T15:35:03.748Z,1.53
2019-03-26T15:37:36.256Z,2.30
2019-03-26T15:40:09.479Z,3.20
2019-03-26T15:42:42.244Z,2.63
2019-03-26T15:45:15.073Z,3.53
2019-03-26T15:47:47.574Z,3.07
2019-03-26T15:50:58.051Z,1.77
2019-03-26T15:53:30.559Z,2.83
2019-03-26T15:56:03.119Z,3.02
2019-03-26T15:58:35.859Z,3.87
2019-03-26T16:01:08.512Z,2.90
2019-03-26T16:03:41.086Z,4.40
2019-03-26T16:06:13.830Z,3.87
2019-03-26T16:08:47.386Z,3.87
2019-03-26T16:11:19.882Z,3.52
2019-03-26T16:13:52.386Z,4.60
2019-03-26T16:16:24.863Z,4.20
2019-03-26T16:18:57.372Z,3.77
2019-03-26T16:21:29.982Z,4.63
2019-03-26T16:24:02.532Z,4.03
2019-03-26T16:26:35.022Z,2.25
2019-03-26T16:29:07.829Z,4.63
2019-03-26T16:31:40.319Z,5.00
2019-03-26T16:34:12.826Z,3.93
2019-03-26T16:36:58.473Z,5.17
2019-03-26T16:39:19.841Z,5.05
2019-03-26T16:41:52.408Z,3.33
2019-03-26T16:44:25.160Z,5.33
2019-03-26T16:46:57.669Z,3.77
2019-03-26T16:49:30.240Z,5.13
2019-03-26T16:52:02.742Z,6.47
2019-03-26T16:54:35.252Z,6.78
2019-03-26T16:57:07.751Z,7.13
2019-03-26T16:59:40.306Z,6.63
2019-03-26T17:02:12.827Z,6.77
2019-03-26T17:04:47.011Z,8.87
2019-03-26T17:07:19.687Z,8.70
2019-03-26T17:09:52.620Z,7.33
2019-03-26T17:12:25.703Z,9.57
2019-03-26T17:14:58.375Z,7.10
2019-03-26T17:17:30.868Z,9.33
2019-03-26T17:20:03.526Z,10.97
2019-03-26T17:22:36.177Z,9.07
2019-03-26T17:25:09.389Z,9.00
2019-03-26T17:27:41.908Z,7.83
2019-03-26T17:30:14.839Z,9.00
2019-03-26T17:32:47.675Z,10.03
2019-03-26T17:35:20.364Z,9.15
2019-03-26T17:37:59.615Z,9.87
2019-03-26T17:40:27.202Z,8.85
2019-03-26T17:43:00.869Z,9.47
2019-03-26T17:45:33.413Z,8.40
2019-03-26T17:48:06.325Z,13.67
2019-03-26T17:50:38.828Z,9.30
2019-03-26T17:53:11.323Z,8.73
2019-03-26T17:55:44.579Z,8.27
2019-03-26T17:58:17.083Z,10.58
2019-03-26T18:00:50.028Z,9.00
2019-03-26T18:03:26.667Z,10.43
2019-03-26T18:05:56.727Z,9.20
2019-03-26T18:08:29.219Z,9.13
2019-03-26T18:11:02.048Z,9.70
2019-03-26T18:13:35.038Z,10.17
2019-03-26T18:16:07.726Z,9.87
2019-03-26T18:18:40.527Z,9.17
2019-03-26T18:21:13.012Z,11.87
2019-03-26T18:23:45.511Z,14.13
2019-03-26T18:26:18.415Z,9.43
2019-03-26T18:28:50.898Z,9.57
2019-03-26T18:31:24.014Z,10.78
2019-03-26T18:33:56.657Z,10.90
2019-03-26T18:36:29.235Z,10.40
2019-03-26T18:39:02.701Z,9.90
2019-03-26T18:41:36.572Z,8.87
2019-03-26T18:44:09.300Z,8.03
2019-03-26T18:46:42.446Z,6.27
2019-03-26T18:49:15.198Z,10.00
2019-03-26T18:51:47.861Z,8.40
2019-03-26T18:54:20.360Z,5.97
2019-03-26T18:56:52.995Z,19.90
2019-03-26T18:59:25.509Z,20.52
2019-03-26T19:01:58.000Z,10.40
2019-03-26T19:04:30.652Z,9.30
2019-03-26T19:07:03.149Z,7.03
2019-03-26T19:09:35.778Z,8.30
2019-03-26T19:12:08.361Z,9.80
2019-03-26T19:14:42.302Z,10.17
2019-03-26T19:17:14.969Z,9.58
2019-03-26T19:19:47.960Z,9.87
2019-03-26T19:22:20.519Z,10.53
2019-03-26T19:24:53.160Z,9.77
2019-03-26T19:27:25.811Z,9.10
2019-03-26T19:29:58.609Z,9.83
2019-03-26T19:32:31.304Z,8.50
2019-03-26T19:35:04.046Z,27.83
2019-03-26T19:37:36.791Z,11.67
2019-03-26T19:40:11.065Z,7.20
2019-03-26T19:42:43.762Z,8.33
2019-03-26T19:45:16.523Z,7.53
2019-03-26T19:47:50.210Z,8.30
2019-03-26T19:50:23.042Z,9.05
2019-03-26T19:52:55.539Z,9.90
2019-03-26T19:55:28.172Z,9.28
2019-03-26T19:58:01.073Z,10.53
2019-03-26T20:00:33.760Z,8.03
2019-03-26T20:03:06.505Z,9.00
2019-03-26T20:05:39.081Z,8.83
2019-03-26T20:08:11.915Z,9.13
2019-03-26T20:10:45.161Z,9.63
2019-03-26T20:13:24.442Z,8.50
2019-03-26T20:15:52.129Z,9.00
2019-03-26T20:18:24.725Z,9.93
2019-03-26T20:20:57.319Z,9.30
2019-03-26T20:23:29.898Z,9.63
2019-03-26T20:26:02.336Z,8.33
2019-03-26T20:28:34.970Z,7.83
2019-03-26T20:31:07.560Z,8.87
2019-03-26T20:33:42.390Z,8.77
2019-03-26T20:36:14.295Z,9.10
2019-03-26T20:38:46.804Z,10.10
2019-03-26T20:41:19.286Z,6.20
2019-03-26T20:43:51.794Z,11.37
2019-03-26T20:46:24.292Z,8.98
2019-03-26T20:48:56.814Z,9.23
2019-03-26T20:51:29.318Z,8.40
2019-03-26T20:54:01.906Z,8.50
2019-03-26T20:56:34.674Z,9.25
2019-03-26T20:59:07.311Z,9.47
2019-03-26T21:01:39.902Z,10.73
2019-03-26T21:04:12.393Z,11.70
2019-03-26T21:06:45.199Z,9.33
2019-03-26T21:09:18.686Z,9.40
2019-03-26T21:11:51.476Z,10.60
2019-03-26T21:14:23.989Z,8.85
2019-03-26T21:16:56.484Z,9.20
2019-03-26T21:19:29.301Z,9.00
2019-03-26T21:22:01.889Z,10.30
2019-03-26T21:24:34.480Z,7.77
2019-03-26T21:27:07.120Z,9.10
2019-03-26T21:29:39.642Z,10.00
2019-03-26T21:32:12.254Z,9.17
2019-03-26T21:34:44.827Z,9.87
2019-03-26T21:37:17.357Z,9.17
2019-03-26T21:39:49.881Z,10.47
2019-03-26T21:42:22.691Z,8.93
2019-03-26T21:44:55.295Z,10.03
2019-03-26T21:47:27.821Z,9.07
2019-03-26T21:50:00.359Z,9.80
2019-03-26T21:52:32.984Z,10.10
2019-03-26T21:55:06.204Z,9.70
2019-03-26T21:57:38.787Z,9.23
2019-03-26T22:00:11.991Z,10.53
2019-03-26T22:02:44.526Z,8.87
2019-03-26T22:05:17.521Z,9.77
2019-03-26T22:07:50.122Z,9.93
2019-03-26T22:10:22.729Z,10.23
2019-03-26T22:12:56.602Z,9.10
2019-03-26T22:15:29.102Z,9.90
2019-03-26T22:18:01.717Z,9.85
2019-03-26T22:20:34.215Z,8.73
2019-03-26T22:23:06.910Z,9.87
2019-03-26T22:25:39.491Z,10.17
2019-03-26T22:28:12.001Z,9.83
2019-03-26T22:30:45.586Z,9.13
2019-03-26T22:33:18.097Z,9.80
2019-03-26T22:35:50.684Z,10.30
2019-03-26T22:38:23.481Z,10.18
2019-03-26T22:40:56.057Z,9.53
2019-03-26T22:43:28.573Z,9.80
2019-03-26T22:46:01.237Z,9.87
2019-03-26T22:48:33.736Z,9.23
2019-03-26T22:51:06.443Z,10.37
2019-03-26T22:53:39.335Z,9.53
2019-03-26T22:56:11.829Z,7.73
2019-03-26T22:58:44.693Z,9.20
2019-03-26T23:01:17.402Z,9.53
2019-03-26T23:03:51.578Z,10.57
2019-03-26T23:06:24.324Z,9.70
2019-03-26T23:08:56.935Z,9.88
2019-03-26T23:11:29.439Z,9.50
2019-03-26T23:14:01.936Z,11.37
2019-03-26T23:16:34.541Z,11.13
2019-03-26T23:19:07.250Z,10.83
2019-03-26T23:21:39.870Z,10.07
2019-03-26T23:24:12.392Z,10.67
2019-03-26T23:26:45.211Z,10.50
2019-03-26T23:29:17.714Z,10.23
2019-03-26T23:31:50.291Z,9.57
2019-03-26T23:34:22.806Z,10.50
2019-03-26T23:36:55.302Z,10.60
2019-03-26T23:39:27.812Z,11.07
2019-03-26T23:42:00.340Z,10.57
2019-03-26T23:44:32.913Z,11.10
2019-03-26T23:47:05.653Z,10.17
2019-03-26T23:49:38.170Z,10.57
2019-03-26T23:52:10.667Z,10.98
2019-03-26T23:54:43.276Z,10.80
2019-03-26T23:57:15.764Z,11.48
2019-03-26T23:59:48.313Z,11.20
